Time;durP1;ratioP1;P1;durP2;ratioP2;P2;SDS_P1;SDS_P2;PMS_P1;PMS_P2;Temp;Humidity;BMP_temperature;BMP_pressure;BME280_temperature;BME280_humidity;BME280_pressure;Samples;Min_cycle;Max_cycle;Signal;HPM_P1;HPM_P2
2023/06/29 00:00:08;;;;;;;;;;;;;;;;;;5053448;28;19928;-88
2023/06/29 00:02:49;;;;;;;;;;;;;;;;;;5078319;28;19916;-88
2023/06/29 00:08:42;;;;;;;;;;;;;;;;;;5095439;28;19924;-88
2023/06/29 00:11:08;;;;;;;;;;;;;;;;;;5070431;28;19920;-88
2023/06/29 00:13:34;;;;;;;;;;;;;;;;;;5054442;28;19921;-89
2023/06/29 00:16:11;;;;;;;;;;;;;;;;;;5073573;28;19912;-87
2023/06/29 00:18:55;;;;;;;;;;;;;;;;;;4985542;28;19925;-88
2023/06/29 00:21:21;;;;;;;;;;;;;;;;;;5043767;28;19920;-89
2023/06/29 00:23:46;;;;;;;;;;;;;;;;;;5054386;28;19943;-89
2023/06/29 00:26:13;;;;;;;;;;;;;;;;;;5053465;28;19921;-88
2023/06/29 00:28:39;;;;;;;;;;;;;;;;;;5053195;28;20210;-89
2023/06/29 00:31:08;;;;;;;;;;;;;;;;;;5063597;28;19908;-89
2023/06/29 00:37:06;;;;;;;;;;;;;;;;;;6001921;22;19929;-89
2023/06/29 00:39:32;;;;;;;;;;;;;;;;;;5053174;28;19925;-88
2023/06/29 00:41:58;;;;;;;;;;;;;;;;;;5606750;22;19934;-89
2023/06/29 00:44:25;;;;;;;;;;;;;;;;;;4996858;28;19992;-89
2023/06/29 00:47:15;;;;;;;;;;;;;;;;;;5039389;28;19909;-88
2023/06/29 01:36:28;;;;;;;;;;;;;;;;;;5769940;22;19929;-89
2023/06/29 01:47:04;;;;;;;;;;;;;;;;;;5253580;22;19939;-89
2023/06/29 01:55:26;;;;;;;;;;;;;;;;;;5865816;22;19927;-87
2023/06/29 01:57:53;;;;;;;;;;;;;;;;;;5081586;28;19971;-88
2023/06/29 04:09:48;;;;;;;;;;;;;;;;;;5034528;28;19968;-88
2023/06/29 04:12:18;;;;;;;;;;;;;;;;;;5020199;28;19933;-88
2023/06/29 04:31:15;;;;;;;;;;;;;;;;;;5017428;28;19975;-90
2023/06/29 04:33:57;;;;;;;;;;;;;;;;;;5040216;28;19955;-88
2023/06/29 04:36:36;;;;;;;;;;;;;;;;;;5022924;28;19912;-91
2023/06/29 04:42:13;;;;;;;;;;;;;;;;;;5058462;28;19924;-89
2023/06/29 04:44:47;;;;;;;;;;;;;;;;;;5056080;28;19988;-89
2023/06/29 04:50:31;;;;;;;;;;;;;;;;;;5056936;28;19928;-89
2023/06/29 04:52:58;;;;;;;;;;;;;;;;;;5040633;28;19912;-86
2023/06/29 04:55:42;;;;;;;;;;;;;;;;;;5037551;28;19972;-89
2023/06/29 04:58:09;;;;;;;;;;;;;;;;;;5043941;28;19956;-86
2023/06/29 05:00:52;;;;;;;;;;;;;;;;;;4982851;28;19930;-87
2023/06/29 05:03:19;;;;;;;;;;;;;;;;;;4996341;28;19937;-87
2023/06/29 05:05:52;;;;;;;;;;;;;;;;;;4964956;28;19967;-87
2023/06/29 05:08:19;;;;;;;;;;;;;;;;;;4960526;28;19922;-86
2023/06/29 05:10:57;;;;;;;;;;;;;;;;;;4960713;28;19930;-87
2023/06/29 05:14:01;;;;;;;;;;;;;;;;;;5054839;28;19979;-87
2023/06/29 05:19:39;;;;;;;;;;;;;;;;;;5048664;28;19952;-88
2023/06/29 05:22:05;;;;;;;;;;;;;;;;;;5014499;28;19921;-87
2023/06/29 05:24:33;;;;;;;;;;;;;;;;;;5022189;28;19909;-86
2023/06/29 05:27:24;;;;;;;;;;;;;;;;;;5054643;28;19921;-86
2023/06/29 05:30:16;;;;;;;;;;;;;;;;;;5051661;28;19928;-88
2023/06/29 05:33:05;;;;;;;;;;;;;;;;;;5055170;28;19932;-87
2023/06/29 05:35:50;;;;;;;;;;;;;;;;;;5041044;28;19909;-85
2023/06/29 05:38:41;;;;;;;;;;;;;;;;;;5057325;28;19909;-87
2023/06/29 05:41:34;;;;;;;;;;;;;;;;;;5080679;28;19916;-88
2023/06/29 05:44:06;;;;;;;;;;;;;;;;;;5078255;28;19913;-87
2023/06/29 05:46:50;;;;;;;;;;;;;;;;;;5061555;28;20421;-86
2023/06/29 05:49:15;;;;;;;;;;;;;;;;;;5043603;28;19921;-86
2023/06/29 05:51:47;;;;;;;;;;;;;;;;;;5063772;28;19924;-87
2023/06/29 05:54:16;;;;;;;;;;;;;;;;;;5034250;28;19922;-88
2023/06/29 05:56:42;;;;;;;;;;;;;;;;;;5042848;28;19931;-87
2023/06/29 05:59:12;;;;;;;;;;;;;;;;;;5062500;28;19931;-87
2023/06/29 06:02:31;;;;;;;;;;;;;;;;;;5081616;28;19909;-86
2023/06/29 06:05:14;;;;;;;;;;;;;;;;;;5062207;28;19928;-87
2023/06/29 09:35:46;;;;;;;;;;;;;;;;;;5039126;28;19933;-89
2023/06/29 09:38:12;;;;;;;;;;;;;;;;;;5019074;28;19929;-88
2023/06/29 09:40:39;;;;;;;;;;;;;;;;;;5019016;28;19926;-88
2023/06/29 09:43:09;;;;;;;;;;;;;;;;;;5033655;28;19925;-86
2023/06/29 09:45:35;;;;;;;;;;;;;;;;;;5034070;28;19945;-87
2023/06/29 09:48:01;;;;;;;;;;;;;;;;;;5034601;28;19965;-88
2023/06/29 09:50:28;;;;;;;;;;;;;;;;;;5019805;28;20402;-87
2023/06/29 09:52:58;;;;;;;;;;;;;;;;;;5020125;28;19961;-89
2023/06/29 09:55:25;;;;;;;;;;;;;;;;;;5020270;28;19922;-89
2023/06/29 09:58:07;;;;;;;;;;;;;;;;;;5022278;28;19921;-88
2023/06/29 10:00:34;;;;;;;;;;;;;;;;;;5019151;28;19925;-89
2023/06/29 10:03:00;;;;;;;;;;;;;;;;;;5018690;28;19980;-87
2023/06/29 10:05:30;;;;;;;;;;;;;;;;;;5035227;28;19913;-88
2023/06/29 10:07:56;;;;;;;;;;;;;;;;;;5018481;28;19930;-88
2023/06/29 10:10:33;;;;;;;;;;;;;;;;;;;;;
2023/06/29 10:13:01;;;;;;;;;;;;;;;;;;5033964;28;19921;-88
2023/06/29 10:15:30;;;;;;;;;;;;;;;;;;5017868;28;19928;-88
2023/06/29 10:17:56;;;;;;;;;;;;;;;;;;5035878;28;19949;-87
2023/06/29 10:20:40;;;;;;;;;;;;;;;;;;5036344;28;19981;-86
2023/06/29 10:23:21;;;;;;;;;;;;;;;;;;5032935;28;19925;-89
2023/06/29 10:25:50;;;;;;;;;;;;;;;;;;5034494;28;19921;-87
2023/06/29 10:28:19;;;;;;;;;;;;;;;;;;5018587;28;19922;-86
2023/06/29 10:30:52;;;;;;;;;;;;;;;;;;5018211;28;19953;-87
2023/06/29 10:33:24;;;;;;;;;;;;;;;;;;5033584;28;19958;-85
2023/06/29 10:35:50;;;;;;;;;;;;;;;;;;5034168;28;19922;-87
2023/06/29 10:38:16;;;;;;;;;;;;;;;;;;5015387;28;19925;-87
2023/06/29 10:40:42;;;;;;;;;;;;;;;;;;5016838;28;19909;-87
2023/06/29 10:43:08;;;;;;;;;;;;;;;;;;5015503;28;19930;-88
2023/06/29 10:45:34;;;;;;;;;;;;;;;;;;5016975;28;19978;-88
2023/06/29 10:48:00;;;;;;;;;;;;;;;;;;5014544;28;19922;-88
2023/06/29 10:50:26;;;;;;;;;;;;;;;;;;5013936;28;20384;-87
2023/06/29 10:52:53;;;;;;;;;;;;;;;;;;5015554;28;20021;-86
2023/06/29 10:55:19;;;;;;;;;;;;;;;;;;5031363;28;19930;-87
2023/06/29 10:57:46;;;;;;;;;;;;;;;;;;5016208;28;19921;-88
2023/06/29 11:00:12;;;;;;;;;;;;;;;;;;5017202;28;19920;-88
2023/06/29 11:02:38;;;;;;;;;;;;;;;;;;5017491;28;19928;-86
2023/06/29 11:05:05;;;;;;;;;;;;;;;;;;5017437;28;19928;-87
2023/06/29 11:07:31;;;;;;;;;;;;;;;;;;5016926;28;19922;-90
2023/06/29 11:09:57;;;;;;;;;;;;;;;;;;5017385;28;19917;-85
2023/06/29 11:12:27;;;;;;;;;;;;;;;;;;5033012;28;19937;-86
2023/06/29 11:14:54;;;;;;;;;;;;;;;;;;5034112;28;19921;-87
2023/06/29 11:17:26;;;;;;;;;;;;;;;;;;5034608;28;19927;-86
2023/06/29 11:19:52;;;;;;;;;;;;;;;;;;5017551;28;19925;-88
2023/06/29 11:22:19;;;;;;;;;;;;;;;;;;5020643;28;19905;-87
2023/06/29 11:24:49;;;;;;;;;;;;;;;;;;5036249;28;20451;-85
2023/06/29 11:27:15;;;;;;;;;;;;;;;;;;5020024;28;20270;-90
2023/06/29 11:29:41;;;;;;;;;;;;;;;;;;5023283;28;19909;-90
2023/06/29 11:32:08;;;;;;;;;;;;;;;;;;5035751;28;19943;-89
2023/06/29 11:34:34;;;;;;;;;;;;;;;;;;5022067;28;19925;-88
2023/06/29 11:37:03;;;;;;;;;;;;;;;;;;5036710;28;19925;-88
2023/06/29 11:39:30;;;;;;;;;;;;;;;;;;5034058;28;19932;-88
2023/06/29 11:41:56;;;;;;;;;;;;;;;;;;5016475;28;19925;-87
2023/06/29 11:44:22;;;;;;;;;;;;;;;;;;5018158;28;19928;-87
2023/06/29 11:46:52;;;;;;;;;;;;;;;;;;5020962;28;19921;-88
2023/06/29 11:49:21;;;;;;;;;;;;;;;;;;5038556;28;19909;-90
2023/06/29 11:51:50;;;;;;;;;;;;;;;;;;5038416;28;19933;-88
2023/06/29 11:54:22;;;;;;;;;;;;;;;;;;5020710;28;19917;-87
2023/06/29 11:56:48;;;;;;;;;;;;;;;;;;5022760;28;19925;-91
2023/06/29 11:59:17;;;;;;;;;;;;;;;;;;5022494;28;19909;-87
2023/06/29 12:01:43;;;;;;;;;;;;;;;;;;5020794;28;20295;-89
2023/06/29 12:04:13;;;;;;;;;;;;;;;;;;5020410;28;19928;-90
2023/06/29 12:06:40;;;;;;;;;;;;;;;;;;5038982;28;19984;-89
2023/06/29 12:09:06;;;;;;;;;;;;;;;;;;5054240;28;19984;-90
2023/06/29 12:11:35;;;;;;;;;;;;;;;;;;5023311;28;20299;-88
2023/06/29 12:14:08;;;;;;;;;;;;;;;;;;5038614;28;19905;-89
2023/06/29 12:16:34;;;;;;;;;;;;;;;;;;5038206;28;19936;-88
2023/06/29 12:19:00;;;;;;;;;;;;;;;;;;5037629;28;19976;-89
2023/06/29 12:21:26;;;;;;;;;;;;;;;;;;5037425;28;19975;-87
2023/06/29 12:23:52;;;;;;;;;;;;;;;;;;5053362;28;19921;-87
2023/06/29 12:26:28;;;;;;;;;;;;;;;;;;5038133;28;19971;-88
2023/06/29 12:28:57;;;;;;;;;;;;;;;;;;5037676;28;19980;-90
2023/06/29 12:31:25;;;;;;;;;;;;;;;;;;5037069;28;19921;-89
2023/06/29 12:33:52;;;;;;;;;;;;;;;;;;5038356;28;19969;-87
2023/06/29 12:36:22;;;;;;;;;;;;;;;;;;5037705;28;19976;-89
2023/06/29 12:38:52;;;;;;;;;;;;;;;;;;5052914;28;20008;-88
2023/06/29 12:41:17;;;;;;;;;;;;;;;;;;5024204;28;19920;-90
2023/06/29 12:43:43;;;;;;;;;;;;;;;;;;5020549;28;19936;-88
2023/06/29 12:46:16;;;;;;;;;;;;;;;;;;5021400;28;19921;-88
2023/06/29 12:48:56;;;;;;;;;;;;;;;;;;5036878;28;19992;-89
2023/06/29 12:51:37;;;;;;;;;;;;;;;;;;5021175;28;19912;-88
2023/06/29 12:54:09;;;;;;;;;;;;;;;;;;5020244;28;19905;-87
2023/06/29 12:56:35;;;;;;;;;;;;;;;;;;5020599;28;19922;-89
2023/06/29 12:59:01;;;;;;;;;;;;;;;;;;5020098;28;19948;-85
2023/06/29 13:01:30;;;;;;;;;;;;;;;;;;5019634;28;19925;-89
2023/06/29 13:03:56;;;;;;;;;;;;;;;;;;5019449;28;19972;-89
2023/06/29 13:06:22;;;;;;;;;;;;;;;;;;5020256;28;19921;-89
2023/06/29 13:08:49;;;;;;;;;;;;;;;;;;5036404;28;19936;-92
2023/06/29 13:11:18;;;;;;;;;;;;;;;;;;5019297;28;19921;-86
2023/06/29 13:13:44;;;;;;;;;;;;;;;;;;5035182;28;19905;-87
2023/06/29 13:16:10;;;;;;;;;;;;;;;;;;5018659;28;19984;-86
2023/06/29 13:18:44;;;;;;;;;;;;;;;;;;5035534;28;20298;-87
2023/06/29 13:21:10;;;;;;;;;;;;;;;;;;5016949;28;19921;-88
2023/06/29 13:23:41;;;;;;;;;;;;;;;;;;5019040;28;20322;-87
2023/06/29 13:26:09;;;;;;;;;;;;;;;;;;5017896;28;19905;-85
2023/06/29 13:28:36;;;;;;;;;;;;;;;;;;5035402;28;19925;-87
2023/06/29 13:31:02;;;;;;;;;;;;;;;;;;5036095;28;19920;-88
2023/06/29 13:33:28;;;;;;;;;;;;;;;;;;5019209;28;19922;-87
2023/06/29 13:35:54;;;;;;;;;;;;;;;;;;5019653;28;19952;-89
2023/06/29 13:38:20;;;;;;;;;;;;;;;;;;5033174;28;19953;-88
2023/06/29 13:40:46;;;;;;;;;;;;;;;;;;5019234;28;19925;-88
2023/06/29 13:43:12;;;;;;;;;;;;;;;;;;5034293;28;20268;-86
2023/06/29 13:45:47;;;;;;;;;;;;;;;;;;5035484;28;19943;-83
2023/06/29 13:48:13;;;;;;;;;;;;;;;;;;5035754;28;19921;-84
2023/06/29 13:50:48;;;;;;;;;;;;;;;;;;5018144;28;19921;-83
2023/06/29 13:53:18;;;;;;;;;;;;;;;;;;5036179;28;19921;-84
2023/06/29 13:55:44;;;;;;;;;;;;;;;;;;5019294;28;19913;-85
2023/06/29 13:58:11;;;;;;;;;;;;;;;;;;5037348;28;19984;-85
2023/06/29 14:00:39;;;;;;;;;;;;;;;;;;5035773;28;19926;-84
2023/06/29 14:03:05;;;;;;;;;;;;;;;;;;5020892;28;19905;-86
2023/06/29 14:05:31;;;;;;;;;;;;;;;;;;5021277;28;19921;-85
2023/06/29 14:08:25;;;;;;;;;;;;;;;;;;5054462;28;19951;-84
2023/06/29 14:10:54;;;;;;;;;;;;;;;;;;5036570;28;19968;-84
2023/06/29 14:13:24;;;;;;;;;;;;;;;;;;5021170;28;19921;-85
2023/06/29 14:15:59;;;;;;;;;;;;;;;;;;5038550;28;19905;-84
2023/06/29 14:18:37;;;;;;;;;;;;;;;;;;5038200;28;19983;-85
2023/06/29 14:21:04;;;;;;;;;;;;;;;;;;5021907;28;19976;-84
2023/06/29 14:23:31;;;;;;;;;;;;;;;;;;5020691;28;20454;-84
2023/06/29 14:25:57;;;;;;;;;;;;;;;;;;5022167;28;19921;-84
2023/06/29 14:28:23;;;;;;;;;;;;;;;;;;5019680;28;19977;-85
2023/06/29 14:30:53;;;;;;;;;;;;;;;;;;5020134;28;19905;-87
2023/06/29 14:33:19;;;;;;;;;;;;;;;;;;5018940;28;19945;-84
2023/06/29 14:35:57;;;;;;;;;;;;;;;;;;5022467;28;19917;-85
2023/06/29 14:38:26;;;;;;;;;;;;;;;;;;5052931;28;19932;-84
2023/06/29 14:40:52;;;;;;;;;;;;;;;;;;5021789;28;19992;-83
2023/06/29 14:43:30;;;;;;;;;;;;;;;;;;5019239;28;19929;-85
2023/06/29 14:46:03;;;;;;;;;;;;;;;;;;5021035;28;19956;-84
2023/06/29 14:48:35;;;;;;;;;;;;;;;;;;5048109;28;19921;-85
2023/06/29 14:51:08;;;;;;;;;;;;;;;;;;5036296;28;19926;-85
2023/06/29 14:53:43;;;;;;;;;;;;;;;;;;5019544;28;19925;-85
2023/06/29 14:56:10;;;;;;;;;;;;;;;;;;5020823;28;19922;-85
2023/06/29 14:58:42;;;;;;;;;;;;;;;;;;5035928;28;19933;-84
2023/06/29 15:01:08;;;;;;;;;;;;;;;;;;5018264;28;19921;-85
2023/06/29 15:03:35;;;;;;;;;;;;;;;;;;5017105;28;20030;-85
2023/06/29 15:06:01;;;;;;;;;;;;;;;;;;5017633;28;19921;-83
2023/06/29 15:08:27;;;;;;;;;;;;;;;;;;5020293;28;19980;-83
2023/06/29 15:10:56;;;;;;;;;;;;;;;;;;5019206;28;19952;-85
2023/06/29 15:13:22;;;;;;;;;;;;;;;;;;5017080;28;19928;-84
2023/06/29 15:15:48;;;;;;;;;;;;;;;;;;5033273;28;19921;-84
2023/06/29 15:18:15;;;;;;;;;;;;;;;;;;5034131;28;20308;-85
2023/06/29 15:20:44;;;;;;;;;;;;;;;;;;5016981;28;19921;-84
2023/06/29 15:23:10;;;;;;;;;;;;;;;;;;5017047;28;19953;-84
2023/06/29 15:25:36;;;;;;;;;;;;;;;;;;5032349;28;19962;-83
2023/06/29 15:28:02;;;;;;;;;;;;;;;;;;5018205;28;19905;-82
2023/06/29 15:30:38;;;;;;;;;;;;;;;;;;5033227;28;19928;-86
2023/06/29 15:33:04;;;;;;;;;;;;;;;;;;5035090;28;19928;-86
2023/06/29 15:35:30;;;;;;;;;;;;;;;;;;5017830;28;19921;-86
2023/06/29 15:37:59;;;;;;;;;;;;;;;;;;5017798;28;20295;-84
2023/06/29 15:40:25;;;;;;;;;;;;;;;;;;5031539;28;19932;-84
2023/06/29 15:42:51;;;;;;;;;;;;;;;;;;5017136;28;19921;-86
2023/06/29 15:45:20;;;;;;;;;;;;;;;;;;5017808;28;19928;-83
2023/06/29 15:47:46;;;;;;;;;;;;;;;;;;5016741;28;20037;-86
2023/06/29 15:50:12;;;;;;;;;;;;;;;;;;5033348;28;20372;-84
2023/06/29 15:52:38;;;;;;;;;;;;;;;;;;5015059;28;19967;-84
2023/06/29 15:55:07;;;;;;;;;;;;;;;;;;5015171;28;19921;-84
2023/06/29 15:57:36;;;;;;;;;;;;;;;;;;5016437;28;19921;-83
2023/06/29 16:00:02;;;;;;;;;;;;;;;;;;5016531;28;19925;-84
2023/06/29 16:02:31;;;;;;;;;;;;;;;;;;5015944;28;19967;-83
2023/06/29 16:04:58;;;;;;;;;;;;;;;;;;5017744;28;19964;-85
2023/06/29 16:07:24;;;;;;;;;;;;;;;;;;5017184;28;19921;-83
2023/06/29 16:09:50;;;;;;;;;;;;;;;;;;5015754;28;20352;-85
2023/06/29 16:12:20;;;;;;;;;;;;;;;;;;5016738;28;22156;-84
2023/06/29 16:14:49;;;;;;;;;;;;;;;;;;5016379;28;19911;-85
2023/06/29 16:17:15;;;;;;;;;;;;;;;;;;5032993;28;19928;-83
2023/06/29 16:19:41;;;;;;;;;;;;;;;;;;5031406;28;20297;-85
2023/06/29 16:22:07;;;;;;;;;;;;;;;;;;5017375;28;19977;-84
2023/06/29 16:24:33;;;;;;;;;;;;;;;;;;5017149;28;19926;-84
2023/06/29 16:27:02;;;;;;;;;;;;;;;;;;5014827;28;20296;-83
2023/06/29 16:29:28;;;;;;;;;;;;;;;;;;5015209;28;19922;-84
2023/06/29 16:31:54;;;;;;;;;;;;;;;;;;5014971;28;20283;-84
2023/06/29 16:34:20;;;;;;;;;;;;;;;;;;5016871;28;19960;-84
2023/06/29 16:36:46;;;;;;;;;;;;;;;;;;5016849;28;19928;-85
2023/06/29 16:39:15;;;;;;;;;;;;;;;;;;5052070;28;19925;-85
2023/06/29 16:41:42;;;;;;;;;;;;;;;;;;5017140;28;19921;-84
2023/06/29 16:44:13;;;;;;;;;;;;;;;;;;5016961;28;19925;-83
2023/06/29 16:46:40;;;;;;;;;;;;;;;;;;5033956;28;19972;-83
2023/06/29 16:49:06;;;;;;;;;;;;;;;;;;5032332;28;19921;-84
2023/06/29 16:51:32;;;;;;;;;;;;;;;;;;5012100;28;20414;-84
2023/06/29 16:53:58;;;;;;;;;;;;;;;;;;5016568;28;19921;-84
2023/06/29 16:56:25;;;;;;;;;;;;;;;;;;5033260;28;19921;-84
2023/06/29 16:58:51;;;;;;;;;;;;;;;;;;5017682;28;20016;-84
2023/06/29 17:01:17;;;;;;;;;;;;;;;;;;5033710;28;19921;-84
2023/06/29 17:03:46;;;;;;;;;;;;;;;;;;5016863;28;19935;-85
2023/06/29 17:06:12;;;;;;;;;;;;;;;;;;5016282;28;19960;-84
2023/06/29 17:08:59;;;;;;;;;;;;;;;;;;5048629;28;19953;-83
2023/06/29 17:11:25;;;;;;;;;;;;;;;;;;5017797;28;19925;-84
2023/06/29 17:13:51;;;;;;;;;;;;;;;;;;5017406;28;19921;-83
2023/06/29 17:16:17;;;;;;;;;;;;;;;;;;5033230;28;20014;-83
2023/06/29 17:18:43;;;;;;;;;;;;;;;;;;5014083;28;19925;-83
2023/06/29 17:21:31;;;;;;;;;;;;;;;;;;5012796;28;19921;-85
2023/06/29 17:24:00;;;;;;;;;;;;;;;;;;5013549;28;19925;-83
2023/06/29 17:26:39;;;;;;;;;;;;;;;;;;5016134;28;19921;-84
2023/06/29 17:29:05;;;;;;;;;;;;;;;;;;5031986;28;19921;-83
2023/06/29 17:31:55;;;;;;;;;;;;;;;;;;5037197;28;19920;-84
2023/06/29 17:34:21;;;;;;;;;;;;;;;;;;5019805;28;19921;-84
2023/06/29 17:36:50;;;;;;;;;;;;;;;;;;5020473;28;19947;-84
2023/06/29 17:39:16;;;;;;;;;;;;;;;;;;5020605;28;19926;-84
2023/06/29 17:41:42;;;;;;;;;;;;;;;;;;5019060;28;19932;-84
2023/06/29 17:44:08;;;;;;;;;;;;;;;;;;5020118;28;19944;-85
2023/06/29 17:46:35;;;;;;;;;;;;;;;;;;5019582;28;19932;-84
2023/06/29 17:49:01;;;;;;;;;;;;;;;;;;5020385;28;19921;-82
2023/06/29 17:51:27;;;;;;;;;;;;;;;;;;5021580;28;19928;-83
2023/06/29 17:53:53;;;;;;;;;;;;;;;;;;5021584;28;19960;-84
2023/06/29 17:56:19;;;;;;;;;;;;;;;;;;5021257;28;19921;-84
2023/06/29 17:58:47;;;;;;;;;;;;;;;;;;5019984;28;20001;-83
2023/06/29 18:01:13;;;;;;;;;;;;;;;;;;5020399;28;19921;-83
2023/06/29 18:03:57;;;;;;;;;;;;;;;;;;5035486;28;20269;-83
2023/06/29 18:06:24;;;;;;;;;;;;;;;;;;5020606;28;19921;-84
2023/06/29 18:08:49;;;;;;;;;;;;;;;;;;5037459;28;20399;-84
2023/06/29 18:11:17;;;;;;;;;;;;;;;;;;5019828;28;19928;-83
2023/06/29 18:13:44;;;;;;;;;;;;;;;;;;5051605;28;19921;-83
2023/06/29 18:16:11;;;;;;;;;;;;;;;;;;5019786;28;19925;-84
2023/06/29 18:18:36;;;;;;;;;;;;;;;;;;5035943;28;19925;-84
2023/06/29 18:21:09;;;;;;;;;;;;;;;;;;5019973;28;19921;-81
2023/06/29 18:23:35;;;;;;;;;;;;;;;;;;5020126;28;20307;-83
2023/06/29 18:26:10;;;;;;;;;;;;;;;;;;5034242;28;19925;-84
2023/06/29 18:28:36;;;;;;;;;;;;;;;;;;5020122;28;19927;-84
2023/06/29 18:31:17;;;;;;;;;;;;;;;;;;5019950;28;19921;-83
2023/06/29 18:33:43;;;;;;;;;;;;;;;;;;5021780;28;19929;-84
2023/06/29 18:36:13;;;;;;;;;;;;;;;;;;5037358;28;19905;-84
2023/06/29 18:38:40;;;;;;;;;;;;;;;;;;5017990;28;19930;-84
2023/06/29 18:41:06;;;;;;;;;;;;;;;;;;5019050;28;19964;-85
2023/06/29 18:43:33;;;;;;;;;;;;;;;;;;5017158;28;19929;-83
2023/06/29 18:46:01;;;;;;;;;;;;;;;;;;5006060;28;19928;-82
2023/06/29 18:48:27;;;;;;;;;;;;;;;;;;5019061;28;19925;-83
2023/06/29 18:50:56;;;;;;;;;;;;;;;;;;5022106;28;19977;-84
2023/06/29 18:53:28;;;;;;;;;;;;;;;;;;5046932;28;19921;-83
2023/06/29 18:55:56;;;;;;;;;;;;;;;;;;5007720;28;19921;-83
2023/06/29 18:58:22;;;;;;;;;;;;;;;;;;5019462;28;20560;-83
2023/06/29 19:00:51;;;;;;;;;;;;;;;;;;5018912;28;19933;-84
2023/06/29 19:03:20;;;;;;;;;;;;;;;;;;5035274;28;19927;-83
2023/06/29 19:05:49;;;;;;;;;;;;;;;;;;5041867;28;19921;-83
2023/06/29 19:08:21;;;;;;;;;;;;;;;;;;5034062;28;20000;-83
2023/06/29 19:10:50;;;;;;;;;;;;;;;;;;5016505;28;19929;-83
2023/06/29 19:13:16;;;;;;;;;;;;;;;;;;5017581;28;19972;-83
2023/06/29 19:15:43;;;;;;;;;;;;;;;;;;5034242;28;20458;-83
2023/06/29 19:18:10;;;;;;;;;;;;;;;;;;5028875;28;19925;-83
2023/06/29 19:20:36;;;;;;;;;;;;;;;;;;5032769;28;19925;-84
2023/06/29 19:23:02;;;;;;;;;;;;;;;;;;5017663;28;19995;-83
2023/06/29 19:25:28;;;;;;;;;;;;;;;;;;5018128;28;19928;-83
2023/06/29 19:27:59;;;;;;;;;;;;;;;;;;5018285;28;19921;-84
2023/06/29 19:30:35;;;;;;;;;;;;;;;;;;5017328;28;19928;-83
2023/06/29 19:33:01;;;;;;;;;;;;;;;;;;5016926;28;19921;-83
2023/06/29 19:35:27;;;;;;;;;;;;;;;;;;5017293;28;19981;-84
2023/06/29 19:37:53;;;;;;;;;;;;;;;;;;5034973;28;19921;-82
2023/06/29 19:40:23;;;;;;;;;;;;;;;;;;5033896;28;19995;-84
2023/06/29 19:42:51;;;;;;;;;;;;;;;;;;5005824;28;19921;-82
2023/06/29 19:45:17;;;;;;;;;;;;;;;;;;5026680;28;19926;-83
2023/06/29 19:47:43;;;;;;;;;;;;;;;;;;5016507;28;19952;-85
2023/06/29 19:50:09;;;;;;;;;;;;;;;;;;5016582;28;19929;-84
2023/06/29 19:52:35;;;;;;;;;;;;;;;;;;5018354;28;19921;-83
2023/06/29 19:55:01;;;;;;;;;;;;;;;;;;5017397;28;19921;-82
2023/06/29 19:57:28;;;;;;;;;;;;;;;;;;5034420;28;19947;-82
2023/06/29 19:59:54;;;;;;;;;;;;;;;;;;5013845;28;19926;-85
2023/06/29 20:02:20;;;;;;;;;;;;;;;;;;5030269;28;19925;-84
2023/06/29 20:04:48;;;;;;;;;;;;;;;;;;5031813;28;19906;-84
2023/06/29 20:07:13;;;;;;;;;;;;;;;;;;5031523;28;19921;-83
2023/06/29 20:09:45;;;;;;;;;;;;;;;;;;5018624;28;19965;-83
2023/06/29 20:12:11;;;;;;;;;;;;;;;;;;5034262;28;20379;-84
2023/06/29 20:14:38;;;;;;;;;;;;;;;;;;5051766;28;19988;-82
2023/06/29 20:17:05;;;;;;;;;;;;;;;;;;5030313;28;19964;-83
2023/06/29 20:19:30;;;;;;;;;;;;;;;;;;5016300;28;19925;-83
2023/06/29 20:21:56;;;;;;;;;;;;;;;;;;5017155;28;19913;-84
2023/06/29 20:24:22;;;;;;;;;;;;;;;;;;5034571;28;19928;-85
2023/06/29 20:26:48;;;;;;;;;;;;;;;;;;5016149;28;19964;-83
2023/06/29 20:29:15;;;;;;;;;;;;;;;;;;5016802;28;19933;-84
2023/06/29 20:31:41;;;;;;;;;;;;;;;;;;5017624;28;19921;-83
2023/06/29 20:34:08;;;;;;;;;;;;;;;;;;5015695;28;19924;-83
2023/06/29 20:36:35;;;;;;;;;;;;;;;;;;5015838;28;19925;-83
2023/06/29 20:39:01;;;;;;;;;;;;;;;;;;5034048;28;19925;-82
2023/06/29 20:41:28;;;;;;;;;;;;;;;;;;5016553;28;19972;-84
2023/06/29 20:43:54;;;;;;;;;;;;;;;;;;5016434;28;19928;-83
2023/06/29 20:46:20;;;;;;;;;;;;;;;;;;5015710;28;19922;-83
2023/06/29 20:48:51;;;;;;;;;;;;;;;;;;5029961;28;19921;-86
2023/06/29 20:51:25;;;;;;;;;;;;;;;;;;5017043;28;19932;-85
2023/06/29 20:53:54;;;;;;;;;;;;;;;;;;5018067;28;19922;-86
2023/06/29 20:56:20;;;;;;;;;;;;;;;;;;5017943;28;19921;-88
2023/06/29 20:58:47;;;;;;;;;;;;;;;;;;5018605;28;19928;-85
2023/06/29 21:01:19;;;;;;;;;;;;;;;;;;5039643;28;19921;-85
2023/06/29 21:03:45;;;;;;;;;;;;;;;;;;5022486;28;19921;-84
2023/06/29 21:06:12;;;;;;;;;;;;;;;;;;5024231;28;19993;-84
2023/06/29 21:08:47;;;;;;;;;;;;;;;;;;5057171;28;19931;-84
2023/06/29 21:11:13;;;;;;;;;;;;;;;;;;5024459;28;19921;-86
2023/06/29 21:16:33;;;;;;;;;;;;;;;;;;5055914;28;19929;-86
2023/06/29 21:19:17;;;;;;;;;;;;;;;;;;5043535;28;20007;-84
2023/06/29 21:21:43;;;;;;;;;;;;;;;;;;5024066;28;19928;-84
2023/06/29 21:24:15;;;;;;;;;;;;;;;;;;5025050;28;19984;-86
2023/06/29 21:27:00;;;;;;;;;;;;;;;;;;5042849;28;19920;-85
2023/06/29 21:29:29;;;;;;;;;;;;;;;;;;5023738;28;19921;-86
2023/06/29 21:31:55;;;;;;;;;;;;;;;;;;5024435;28;19905;-86
2023/06/29 21:34:21;;;;;;;;;;;;;;;;;;5023142;28;19928;-85
2023/06/29 21:37:01;;;;;;;;;;;;;;;;;;5019635;28;19944;-85
2023/06/29 21:39:31;;;;;;;;;;;;;;;;;;5025838;28;19929;-86
2023/06/29 21:41:57;;;;;;;;;;;;;;;;;;5025255;28;19972;-86
2023/06/29 21:44:23;;;;;;;;;;;;;;;;;;5023918;28;19929;-87
2023/06/29 21:46:50;;;;;;;;;;;;;;;;;;5023180;28;19939;-86
2023/06/29 21:49:18;;;;;;;;;;;;;;;;;;5024841;28;19921;-86
2023/06/29 21:51:47;;;;;;;;;;;;;;;;;;5021031;28;19921;-85
2023/06/29 21:54:13;;;;;;;;;;;;;;;;;;5039180;28;19929;-84
2023/06/29 21:56:40;;;;;;;;;;;;;;;;;;5039410;28;19921;-86
2023/06/29 21:59:06;;;;;;;;;;;;;;;;;;5026358;28;19925;-85
2023/06/29 22:01:41;;;;;;;;;;;;;;;;;;5025626;28;19952;-86
2023/06/29 22:04:07;;;;;;;;;;;;;;;;;;5024484;28;19913;-85
2023/06/29 22:06:36;;;;;;;;;;;;;;;;;;5024187;28;19972;-86
2023/06/29 22:09:04;;;;;;;;;;;;;;;;;;5022948;28;19925;-83
2023/06/29 22:11:41;;;;;;;;;;;;;;;;;;5023625;28;19921;-84
2023/06/29 22:14:08;;;;;;;;;;;;;;;;;;5021870;28;19932;-86
2023/06/29 22:16:43;;;;;;;;;;;;;;;;;;5023916;28;19928;-86
2023/06/29 22:19:09;;;;;;;;;;;;;;;;;;5021284;28;20358;-85
2023/06/29 22:21:41;;;;;;;;;;;;;;;;;;5022411;28;19921;-83
2023/06/29 22:24:07;;;;;;;;;;;;;;;;;;5019970;28;19974;-85
2023/06/29 22:26:36;;;;;;;;;;;;;;;;;;5035274;28;20005;-86
2023/06/29 22:29:02;;;;;;;;;;;;;;;;;;5035494;28;19926;-86
2023/06/29 22:31:28;;;;;;;;;;;;;;;;;;5022392;28;20477;-85
2023/06/29 22:33:54;;;;;;;;;;;;;;;;;;5021815;28;20015;-86
2023/06/29 22:36:20;;;;;;;;;;;;;;;;;;5021527;28;19943;-84
2023/06/29 22:38:46;;;;;;;;;;;;;;;;;;5020023;28;19921;-86
2023/06/29 22:41:13;;;;;;;;;;;;;;;;;;5013336;28;19985;-84
2023/06/29 22:43:57;;;;;;;;;;;;;;;;;;5026673;28;19914;-85
2023/06/29 22:46:25;;;;;;;;;;;;;;;;;;5001692;28;19905;-86
2023/06/29 22:48:53;;;;;;;;;;;;;;;;;;5037135;28;19928;-85
2023/06/29 22:51:23;;;;;;;;;;;;;;;;;;5021907;28;19928;-86
2023/06/29 22:53:49;;;;;;;;;;;;;;;;;;5021515;28;19905;-85
2023/06/29 22:56:16;;;;;;;;;;;;;;;;;;5036312;28;19905;-83
2023/06/29 22:58:42;;;;;;;;;;;;;;;;;;5021210;28;19905;-86
2023/06/29 23:01:09;;;;;;;;;;;;;;;;;;5037330;28;19921;-87
2023/06/29 23:03:35;;;;;;;;;;;;;;;;;;5021816;28;20374;-86
2023/06/29 23:06:02;;;;;;;;;;;;;;;;;;5020573;28;19921;-87
2023/06/29 23:08:28;;;;;;;;;;;;;;;;;;5035900;28;19959;-86
2023/06/29 23:10:54;;;;;;;;;;;;;;;;;;5019960;28;19925;-86
2023/06/29 23:13:21;;;;;;;;;;;;;;;;;;5036229;28;19905;-86
2023/06/29 23:15:49;;;;;;;;;;;;;;;;;;5052564;28;19921;-85
2023/06/29 23:18:22;;;;;;;;;;;;;;;;;;5020066;28;19921;-83
2023/06/29 23:20:48;;;;;;;;;;;;;;;;;;5036355;28;19932;-86
2023/06/29 23:23:24;;;;;;;;;;;;;;;;;;5019235;28;19928;-85
2023/06/29 23:25:52;;;;;;;;;;;;;;;;;;5020758;28;19925;-85
2023/06/29 23:28:19;;;;;;;;;;;;;;;;;;5021896;28;19931;-86
2023/06/29 23:30:45;;;;;;;;;;;;;;;;;;5020529;28;19928;-86
2023/06/29 23:33:12;;;;;;;;;;;;;;;;;;5020811;28;19921;-87
2023/06/29 23:36:01;;;;;;;;;;;;;;;;;;5026145;28;19976;-86
2023/06/29 23:41:29;;;;;;;;;;;;;;;;;;5037539;28;19925;-87
2023/06/29 23:44:02;;;;;;;;;;;;;;;;;;5037627;28;20005;-84
2023/06/29 23:46:36;;;;;;;;;;;;;;;;;;5020457;28;20343;-87
2023/06/29 23:49:06;;;;;;;;;;;;;;;;;;5020913;28;19944;-86
2023/06/29 23:51:50;;;;;;;;;;;;;;;;;;5037458;28;19930;-83
2023/06/29 23:54:25;;;;;;;;;;;;;;;;;;5036106;28;19961;-86
2023/06/29 23:56:58;;;;;;;;;;;;;;;;;;5035374;28;19921;-86
2023/06/29 23:59:28;;;;;;;;;;;;;;;;;;5035324;28;19972;-88
